ANA429 RJOO-RJFF
Flight info
| Callsign | ANA429 |
|---|---|
| Flight time | 1h 2m |
| Altitude | 36000 |
| Route | SOUJA Y281 STOUT Y20 KIRIN |
| Aircraft | B772/H-SDE2E3FGHIJ5LORVWXY/LB1D1 |
Departure
| Time | 2026-05-09 03:45 |
|---|---|
| Airport | Osaka Itami International Airport (RJOO) |
Arrival
| Time | 2026-05-09 04:48 |
|---|---|
| Airport | Fukuoka Airport (RJFF) |
| Time | Latitude | Longitude | Altitude | Speed | Heading |
|---|---|---|---|---|---|
| 2026-05-09 03:10 | 34.78867 | 135.44226 | 46 ft | 0 kts | 31° |
| 2026-05-09 03:31 | 34.78862 | 135.44222 | 46 ft | 2 kts | 32° |
| 2026-05-09 03:31 | 34.78848 | 135.44212 | 44 ft | 2 kts | 33° |
| 2026-05-09 03:31 | 34.78834 | 135.44201 | 44 ft | 2 kts | 34° |
| 2026-05-09 03:31 | 34.78821 | 135.44189 | 45 ft | 2 kts | 36° |
| 2026-05-09 03:32 | 34.78808 | 135.44177 | 44 ft | 2 kts | 38° |
| 2026-05-09 03:32 | 34.78795 | 135.44164 | 45 ft | 2 kts | 42° |
| 2026-05-09 03:32 | 34.78783 | 135.44150 | 44 ft | 2 kts | 48° |
| 2026-05-09 03:32 | 34.78773 | 135.44135 | 44 ft | 2 kts | 59° |
| 2026-05-09 03:33 | 34.78766 | 135.44116 | 44 ft | 2 kts | 85° |
| 2026-05-09 03:33 | 34.78768 | 135.44097 | 41 ft | 2 kts | 123° |
| 2026-05-09 03:33 | 34.78769 | 135.44094 | 41 ft | 2 kts | 127° |
| 2026-05-09 03:33 | 34.78772 | 135.44090 | 42 ft | 0 kts | 132° |
| 2026-05-09 03:38 | 34.78742 | 135.44127 | 46 ft | 8 kts | 135° |
| 2026-05-09 03:38 | 34.78697 | 135.44181 | 46 ft | 10 kts | 136° |
| 2026-05-09 03:38 | 34.78648 | 135.44237 | 44 ft | 10 kts | 136° |
| 2026-05-09 03:38 | 34.78600 | 135.44295 | 46 ft | 10 kts | 136° |
| 2026-05-09 03:39 | 34.78541 | 135.44331 | 46 ft | 10 kts | 171° |
| 2026-05-09 03:39 | 34.78474 | 135.44334 | 46 ft | 10 kts | 179° |
| 2026-05-09 03:39 | 34.78408 | 135.44333 | 47 ft | 10 kts | 180° |
| 2026-05-09 03:39 | 34.78340 | 135.44333 | 47 ft | 10 kts | 180° |
| 2026-05-09 03:40 | 34.78269 | 135.44333 | 47 ft | 10 kts | 180° |
| 2026-05-09 03:40 | 34.78198 | 135.44336 | 45 ft | 10 kts | 169° |
| 2026-05-09 03:40 | 34.78136 | 135.44382 | 46 ft | 11 kts | 138° |
| 2026-05-09 03:40 | 34.78077 | 135.44452 | 43 ft | 12 kts | 135° |
| 2026-05-09 03:41 | 34.78018 | 135.44526 | 43 ft | 13 kts | 134° |
| 2026-05-09 03:41 | 34.77955 | 135.44603 | 44 ft | 13 kts | 135° |
| 2026-05-09 03:41 | 34.77886 | 135.44685 | 46 ft | 14 kts | 135° |
| 2026-05-09 03:41 | 34.77817 | 135.44768 | 46 ft | 14 kts | 135° |
| 2026-05-09 03:42 | 34.77748 | 135.44853 | 46 ft | 14 kts | 135° |
| 2026-05-09 03:42 | 34.77670 | 135.44923 | 46 ft | 14 kts | 153° |
| 2026-05-09 03:42 | 34.77582 | 135.44974 | 47 ft | 14 kts | 155° |
| 2026-05-09 03:42 | 34.77515 | 135.45009 | 47 ft | 8 kts | 160° |
| 2026-05-09 03:43 | 34.77499 | 135.45013 | 47 ft | 0 kts | 173° |
| 2026-05-09 03:44 | 34.77489 | 135.45013 | 46 ft | 5 kts | 179° |
| 2026-05-09 03:44 | 34.77445 | 135.44990 | 48 ft | 9 kts | 219° |
| 2026-05-09 03:44 | 34.77442 | 135.44922 | 49 ft | 9 kts | 304° |
| 2026-05-09 03:45 | 34.77543 | 135.44795 | 46 ft | 46 kts | 315° |
| 2026-05-09 03:45 | 34.77972 | 135.44279 | 47 ft | 126 kts | 315° |
| 2026-05-09 03:45 | 34.78709 | 135.43374 | 462 ft | 158 kts | 316° |
| 2026-05-09 03:45 | 34.79408 | 135.42374 | 1514 ft | 156 kts | 297° |
| 2026-05-09 03:46 | 34.79580 | 135.41033 | 2262 ft | 173 kts | 276° |
| 2026-05-09 03:46 | 34.79401 | 135.39439 | 2535 ft | 210 kts | 250° |
| 2026-05-09 03:46 | 34.78348 | 135.38038 | 2911 ft | 243 kts | 208° |
| 2026-05-09 03:46 | 34.76663 | 135.37652 | 3710 ft | 258 kts | 176° |
| 2026-05-09 03:47 | 34.74861 | 135.38086 | 4382 ft | 268 kts | 167° |
| 2026-05-09 03:47 | 34.73000 | 135.38299 | 5120 ft | 274 kts | 192° |
| 2026-05-09 03:47 | 34.71171 | 135.37648 | 5906 ft | 278 kts | 199° |
| 2026-05-09 03:47 | 34.69285 | 135.36996 | 6838 ft | 285 kts | 197° |
| 2026-05-09 03:48 | 34.67358 | 135.36386 | 7803 ft | 285 kts | 202° |
| 2026-05-09 03:48 | 34.65687 | 135.35146 | 8612 ft | 283 kts | 232° |
| 2026-05-09 03:48 | 34.64725 | 135.33143 | 9702 ft | 271 kts | 259° |
| 2026-05-09 03:48 | 34.64555 | 135.30924 | 10732 ft | 262 kts | 280° |
| 2026-05-09 03:49 | 34.65002 | 135.28839 | 11697 ft | 258 kts | 296° |
| 2026-05-09 03:49 | 34.65934 | 135.26955 | 12560 ft | 259 kts | 302° |
| 2026-05-09 03:49 | 34.66697 | 135.24949 | 12959 ft | 278 kts | 288° |
| 2026-05-09 03:49 | 34.67157 | 135.22544 | 13183 ft | 306 kts | 283° |
| 2026-05-09 03:50 | 34.67605 | 135.19892 | 13418 ft | 334 kts | 284° |
| 2026-05-09 03:50 | 34.68103 | 135.17083 | 14141 ft | 345 kts | 284° |
| 2026-05-09 03:50 | 34.68633 | 135.14209 | 15031 ft | 350 kts | 284° |
| 2026-05-09 03:50 | 34.69182 | 135.11335 | 16129 ft | 349 kts | 284° |
| 2026-05-09 03:51 | 34.69733 | 135.08467 | 17240 ft | 348 kts | 283° |
| 2026-05-09 03:51 | 34.70284 | 135.05598 | 18225 ft | 350 kts | 283° |
| 2026-05-09 03:51 | 34.70672 | 135.02683 | 18925 ft | 353 kts | 273° |
| 2026-05-09 03:51 | 34.70459 | 134.99691 | 19646 ft | 358 kts | 262° |
| 2026-05-09 03:52 | 34.69905 | 134.96723 | 20422 ft | 361 kts | 260° |
| 2026-05-09 03:52 | 34.69322 | 134.93756 | 21228 ft | 362 kts | 260° |
| 2026-05-09 03:52 | 34.68736 | 134.90778 | 22048 ft | 363 kts | 260° |
| 2026-05-09 03:52 | 34.68152 | 134.87790 | 22801 ft | 366 kts | 260° |
| 2026-05-09 03:53 | 34.67570 | 134.84774 | 23573 ft | 367 kts | 260° |
| 2026-05-09 03:53 | 34.66990 | 134.81743 | 24202 ft | 370 kts | 259° |
| 2026-05-09 03:53 | 34.66408 | 134.78690 | 24816 ft | 371 kts | 259° |
| 2026-05-09 03:53 | 34.65826 | 134.75630 | 25424 ft | 373 kts | 259° |
| 2026-05-09 03:54 | 34.65242 | 134.72558 | 26034 ft | 374 kts | 258° |
| 2026-05-09 03:54 | 34.64655 | 134.69472 | 26595 ft | 376 kts | 258° |
| 2026-05-09 03:54 | 34.64065 | 134.66375 | 27109 ft | 378 kts | 258° |
| 2026-05-09 03:54 | 34.63471 | 134.63265 | 27628 ft | 379 kts | 257° |
| 2026-05-09 03:55 | 34.62881 | 134.60173 | 28111 ft | 381 kts | 257° |
| 2026-05-09 03:55 | 34.62273 | 134.56993 | 28560 ft | 383 kts | 257° |
| 2026-05-09 03:55 | 34.61668 | 134.53835 | 28937 ft | 385 kts | 257° |
| 2026-05-09 03:55 | 34.61067 | 134.50699 | 29280 ft | 388 kts | 257° |
| 2026-05-09 03:56 | 34.60452 | 134.47501 | 29639 ft | 389 kts | 257° |
| 2026-05-09 03:56 | 34.59835 | 134.44297 | 29983 ft | 390 kts | 256° |
| 2026-05-09 03:56 | 34.59217 | 134.41093 | 30386 ft | 389 kts | 256° |
| 2026-05-09 03:56 | 34.58599 | 134.37897 | 30780 ft | 388 kts | 256° |
| 2026-05-09 03:57 | 34.57984 | 134.34716 | 31148 ft | 387 kts | 256° |
| 2026-05-09 03:57 | 34.57367 | 134.31534 | 31488 ft | 386 kts | 256° |
| 2026-05-09 03:57 | 34.56751 | 134.28358 | 31839 ft | 386 kts | 256° |
| 2026-05-09 03:57 | 34.56138 | 134.25194 | 32220 ft | 385 kts | 256° |
| 2026-05-09 03:58 | 34.55524 | 134.22038 | 32597 ft | 383 kts | 256° |
| 2026-05-09 03:58 | 34.54912 | 134.18896 | 32970 ft | 382 kts | 255° |
| 2026-05-09 03:58 | 34.54462 | 134.15731 | 33216 ft | 384 kts | 263° |
| 2026-05-09 03:58 | 34.54507 | 134.12513 | 33499 ft | 390 kts | 270° |
| 2026-05-09 03:59 | 34.55042 | 134.09275 | 33870 ft | 394 kts | 277° |
| 2026-05-09 03:59 | 34.55757 | 134.06060 | 34051 ft | 397 kts | 278° |
| 2026-05-09 03:59 | 34.57204 | 133.99610 | 34114 ft | 393 kts | 278° |
| 2026-05-09 04:00 | 34.58598 | 133.93223 | 34114 ft | 390 kts | 277° |
| 2026-05-09 04:00 | 34.59959 | 133.86872 | 34112 ft | 388 kts | 277° |
| 2026-05-09 04:01 | 34.61312 | 133.80529 | 34113 ft | 388 kts | 277° |
| 2026-05-09 04:01 | 34.62410 | 133.74164 | 34111 ft | 380 kts | 268° |
| 2026-05-09 04:02 | 34.61839 | 133.67849 | 34115 ft | 379 kts | 257° |
| 2026-05-09 04:02 | 34.60818 | 133.61511 | 34120 ft | 383 kts | 257° |
| 2026-05-09 04:03 | 34.59810 | 133.55157 | 34124 ft | 383 kts | 257° |
| 2026-05-09 04:03 | 34.58824 | 133.48835 | 34129 ft | 383 kts | 257° |
| 2026-05-09 04:04 | 34.57836 | 133.42478 | 34140 ft | 383 kts | 257° |
| 2026-05-09 04:04 | 34.56843 | 133.36107 | 34136 ft | 384 kts | 257° |
| 2026-05-09 04:05 | 34.55849 | 133.29752 | 34132 ft | 384 kts | 257° |
| 2026-05-09 04:05 | 34.54849 | 133.23379 | 34135 ft | 384 kts | 257° |
| 2026-05-09 04:06 | 34.53847 | 133.17013 | 34132 ft | 385 kts | 257° |
| 2026-05-09 04:06 | 34.53011 | 133.11721 | 34127 ft | 384 kts | 258° |
| 2026-05-09 04:07 | 34.51844 | 133.04351 | 34128 ft | 382 kts | 257° |
| 2026-05-09 04:07 | 34.50835 | 132.98016 | 34132 ft | 382 kts | 257° |
| 2026-05-09 04:08 | 34.49990 | 132.92720 | 34094 ft | 382 kts | 257° |
| 2026-05-09 04:08 | 34.48983 | 132.86427 | 34106 ft | 382 kts | 257° |
| 2026-05-09 04:09 | 34.47967 | 132.80097 | 34093 ft | 382 kts | 257° |
| 2026-05-09 04:09 | 34.46945 | 132.73766 | 34105 ft | 383 kts | 257° |
| 2026-05-09 04:10 | 34.45908 | 132.67421 | 34109 ft | 384 kts | 257° |
| 2026-05-09 04:10 | 34.44864 | 132.61072 | 34116 ft | 384 kts | 257° |
| 2026-05-09 04:11 | 34.43820 | 132.54726 | 34127 ft | 384 kts | 257° |
| 2026-05-09 04:11 | 34.42775 | 132.48407 | 34136 ft | 385 kts | 257° |
| 2026-05-09 04:12 | 34.41722 | 132.42047 | 34131 ft | 385 kts | 257° |
| 2026-05-09 04:12 | 34.40662 | 132.35676 | 34132 ft | 385 kts | 257° |
| 2026-05-09 04:13 | 34.39659 | 132.29327 | 34133 ft | 383 kts | 258° |
| 2026-05-09 04:13 | 34.38670 | 132.22979 | 34133 ft | 384 kts | 258° |
| 2026-05-09 04:14 | 34.37675 | 132.16656 | 34132 ft | 385 kts | 258° |
| 2026-05-09 04:14 | 34.36682 | 132.10286 | 34148 ft | 383 kts | 258° |
| 2026-05-09 04:15 | 34.35685 | 132.03925 | 34140 ft | 385 kts | 258° |
| 2026-05-09 04:15 | 34.34685 | 131.97565 | 34135 ft | 384 kts | 258° |
| 2026-05-09 04:16 | 34.33677 | 131.91191 | 34126 ft | 385 kts | 258° |
| 2026-05-09 04:16 | 34.32675 | 131.84841 | 34152 ft | 384 kts | 257° |
| 2026-05-09 04:17 | 34.31664 | 131.78476 | 34155 ft | 386 kts | 258° |
| 2026-05-09 04:17 | 34.30651 | 131.72130 | 34157 ft | 387 kts | 258° |
| 2026-05-09 04:18 | 34.29618 | 131.65683 | 34142 ft | 388 kts | 257° |
| 2026-05-09 04:18 | 34.28581 | 131.59280 | 34145 ft | 388 kts | 258° |
| 2026-05-09 04:19 | 34.27542 | 131.52885 | 34145 ft | 387 kts | 258° |
| 2026-05-09 04:19 | 34.26511 | 131.46542 | 34150 ft | 387 kts | 258° |
| 2026-05-09 04:20 | 34.25468 | 131.40157 | 34145 ft | 387 kts | 258° |
| 2026-05-09 04:20 | 34.24418 | 131.33747 | 33488 ft | 396 kts | 258° |
| 2026-05-09 04:21 | 34.23881 | 131.30481 | 32690 ft | 394 kts | 258° |
| 2026-05-09 04:21 | 34.23351 | 131.27259 | 31990 ft | 389 kts | 258° |
| 2026-05-09 04:21 | 34.22300 | 131.20892 | 30650 ft | 382 kts | 259° |
| 2026-05-09 04:22 | 34.21782 | 131.17748 | 29953 ft | 379 kts | 259° |
| 2026-05-09 04:22 | 34.21265 | 131.14629 | 29158 ft | 377 kts | 259° |
| 2026-05-09 04:22 | 34.20753 | 131.11537 | 28430 ft | 374 kts | 259° |
| 2026-05-09 04:22 | 34.20250 | 131.08510 | 27745 ft | 371 kts | 259° |
| 2026-05-09 04:23 | 34.19744 | 131.05465 | 27059 ft | 368 kts | 259° |
| 2026-05-09 04:23 | 34.19140 | 131.02468 | 26399 ft | 366 kts | 255° |
| 2026-05-09 04:23 | 34.18355 | 130.99552 | 25791 ft | 365 kts | 252° |
| 2026-05-09 04:23 | 34.17390 | 130.96707 | 25161 ft | 364 kts | 250° |
| 2026-05-09 04:24 | 34.16388 | 130.93910 | 24551 ft | 363 kts | 250° |
| 2026-05-09 04:24 | 34.15381 | 130.91113 | 23940 ft | 362 kts | 250° |
| 2026-05-09 04:24 | 34.14383 | 130.88328 | 23249 ft | 361 kts | 250° |
| 2026-05-09 04:24 | 34.13391 | 130.85550 | 22623 ft | 359 kts | 250° |
| 2026-05-09 04:25 | 34.12409 | 130.82796 | 22027 ft | 357 kts | 250° |
| 2026-05-09 04:25 | 34.11415 | 130.80061 | 21444 ft | 354 kts | 250° |
| 2026-05-09 04:25 | 34.10404 | 130.77358 | 20896 ft | 353 kts | 250° |
| 2026-05-09 04:25 | 34.09390 | 130.74671 | 20364 ft | 351 kts | 250° |
| 2026-05-09 04:26 | 34.08380 | 130.71996 | 19830 ft | 349 kts | 250° |
| 2026-05-09 04:26 | 34.07376 | 130.69327 | 19302 ft | 349 kts | 250° |
| 2026-05-09 04:26 | 34.06376 | 130.66669 | 18783 ft | 348 kts | 250° |
| 2026-05-09 04:26 | 34.05376 | 130.64007 | 18232 ft | 348 kts | 250° |
| 2026-05-09 04:27 | 34.04377 | 130.61349 | 17650 ft | 348 kts | 250° |
| 2026-05-09 04:27 | 34.03381 | 130.58701 | 17128 ft | 346 kts | 250° |
| 2026-05-09 04:27 | 34.02388 | 130.56063 | 16615 ft | 345 kts | 250° |
| 2026-05-09 04:27 | 34.01398 | 130.53437 | 16119 ft | 343 kts | 250° |
| 2026-05-09 04:28 | 34.00413 | 130.50825 | 15625 ft | 342 kts | 250° |
| 2026-05-09 04:28 | 33.99349 | 130.48262 | 15161 ft | 343 kts | 243° |
| 2026-05-09 04:28 | 33.97930 | 130.45933 | 14682 ft | 346 kts | 236° |
| 2026-05-09 04:28 | 33.96399 | 130.43692 | 14195 ft | 346 kts | 236° |
| 2026-05-09 04:29 | 33.94884 | 130.41444 | 13681 ft | 341 kts | 238° |
| 2026-05-09 04:29 | 33.93807 | 130.38999 | 13242 ft | 326 kts | 257° |
| 2026-05-09 04:29 | 33.93431 | 130.36334 | 13078 ft | 323 kts | 270° |
| 2026-05-09 04:29 | 33.93599 | 130.33633 | 13030 ft | 325 kts | 279° |
| 2026-05-09 04:30 | 33.93897 | 130.30959 | 13033 ft | 328 kts | 279° |
| 2026-05-09 04:30 | 33.93991 | 130.28269 | 12582 ft | 317 kts | 264° |
| 2026-05-09 04:30 | 33.93059 | 130.25843 | 12120 ft | 330 kts | 234° |
| 2026-05-09 04:30 | 33.91155 | 130.24176 | 11884 ft | 354 kts | 207° |
| 2026-05-09 04:31 | 33.88702 | 130.23690 | 11772 ft | 357 kts | 180° |
| 2026-05-09 04:31 | 33.86373 | 130.24258 | 11520 ft | 325 kts | 174° |
| 2026-05-09 04:31 | 33.84250 | 130.24296 | 11101 ft | 291 kts | 193° |
| 2026-05-09 04:31 | 33.82306 | 130.23894 | 10533 ft | 277 kts | 197° |
| 2026-05-09 04:32 | 33.80438 | 130.23424 | 9831 ft | 273 kts | 197° |
| 2026-05-09 04:32 | 33.78582 | 130.22978 | 9051 ft | 270 kts | 195° |
| 2026-05-09 04:32 | 33.76743 | 130.22570 | 8435 ft | 268 kts | 194° |
| 2026-05-09 04:32 | 33.74873 | 130.22174 | 8230 ft | 274 kts | 194° |
| 2026-05-09 04:33 | 33.72980 | 130.21783 | 8070 ft | 277 kts | 194° |
| 2026-05-09 04:33 | 33.71107 | 130.21409 | 8004 ft | 266 kts | 191° |
| 2026-05-09 04:33 | 33.69301 | 130.21626 | 7982 ft | 271 kts | 162° |
| 2026-05-09 04:33 | 33.67644 | 130.22778 | 7867 ft | 280 kts | 146° |
| 2026-05-09 04:34 | 33.66051 | 130.24149 | 7744 ft | 282 kts | 146° |
| 2026-05-09 04:34 | 33.64460 | 130.25521 | 7601 ft | 282 kts | 146° |
| 2026-05-09 04:34 | 33.62876 | 130.26881 | 7483 ft | 278 kts | 146° |
| 2026-05-09 04:34 | 33.61311 | 130.28218 | 7352 ft | 274 kts | 146° |
| 2026-05-09 04:35 | 33.59759 | 130.29535 | 7238 ft | 273 kts | 146° |
| 2026-05-09 04:35 | 33.58212 | 130.30844 | 7129 ft | 273 kts | 146° |
| 2026-05-09 04:35 | 33.56648 | 130.32165 | 7019 ft | 274 kts | 146° |
| 2026-05-09 04:35 | 33.55074 | 130.33447 | 6888 ft | 274 kts | 148° |
| 2026-05-09 04:36 | 33.53468 | 130.34683 | 6778 ft | 274 kts | 149° |
| 2026-05-09 04:36 | 33.51858 | 130.35913 | 6665 ft | 275 kts | 148° |
| 2026-05-09 04:36 | 33.50248 | 130.37144 | 6536 ft | 276 kts | 149° |
| 2026-05-09 04:36 | 33.48636 | 130.38381 | 6398 ft | 273 kts | 149° |
| 2026-05-09 04:37 | 33.47049 | 130.39604 | 6269 ft | 268 kts | 149° |
| 2026-05-09 04:37 | 33.45483 | 130.40810 | 6168 ft | 268 kts | 148° |
| 2026-05-09 04:37 | 33.43910 | 130.42022 | 6033 ft | 269 kts | 148° |
| 2026-05-09 04:37 | 33.42339 | 130.43230 | 5938 ft | 267 kts | 149° |
| 2026-05-09 04:38 | 33.40771 | 130.44438 | 5811 ft | 268 kts | 149° |
| 2026-05-09 04:38 | 33.39226 | 130.45626 | 5708 ft | 266 kts | 148° |
| 2026-05-09 04:38 | 33.37671 | 130.46822 | 5578 ft | 265 kts | 148° |
| 2026-05-09 04:38 | 33.36127 | 130.48009 | 5491 ft | 264 kts | 148° |
| 2026-05-09 04:39 | 33.34576 | 130.49201 | 5377 ft | 266 kts | 148° |
| 2026-05-09 04:39 | 33.33014 | 130.50401 | 5254 ft | 267 kts | 148° |
| 2026-05-09 04:39 | 33.31501 | 130.51565 | 5129 ft | 248 kts | 146° |
| 2026-05-09 04:39 | 33.30347 | 130.52976 | 4999 ft | 231 kts | 115° |
| 2026-05-09 04:40 | 33.29977 | 130.54840 | 4954 ft | 235 kts | 88° |
| 2026-05-09 04:40 | 33.30236 | 130.56772 | 4852 ft | 237 kts | 65° |
| 2026-05-09 04:40 | 33.30975 | 130.58519 | 4730 ft | 234 kts | 57° |
| 2026-05-09 04:40 | 33.31802 | 130.60165 | 4606 ft | 225 kts | 49° |
| 2026-05-09 04:41 | 33.32974 | 130.61269 | 4487 ft | 209 kts | 14° |
| 2026-05-09 04:41 | 33.34363 | 130.61304 | 4412 ft | 203 kts | 340° |
| 2026-05-09 04:41 | 33.35662 | 130.60639 | 4334 ft | 201 kts | 332° |
| 2026-05-09 04:41 | 33.36916 | 130.59856 | 4251 ft | 209 kts | 330° |
| 2026-05-09 04:42 | 33.38201 | 130.59001 | 4149 ft | 210 kts | 329° |
| 2026-05-09 04:42 | 33.39470 | 130.58137 | 4078 ft | 209 kts | 329° |
| 2026-05-09 04:42 | 33.40720 | 130.57285 | 3871 ft | 203 kts | 329° |
| 2026-05-09 04:42 | 33.41906 | 130.56474 | 3616 ft | 187 kts | 330° |
| 2026-05-09 04:43 | 33.42980 | 130.55740 | 3358 ft | 169 kts | 329° |
| 2026-05-09 04:43 | 33.43972 | 130.55061 | 3152 ft | 161 kts | 330° |
| 2026-05-09 04:43 | 33.44966 | 130.54385 | 2957 ft | 165 kts | 330° |
| 2026-05-09 04:43 | 33.45924 | 130.53731 | 2724 ft | 151 kts | 329° |
| 2026-05-09 04:44 | 33.46808 | 130.53126 | 2518 ft | 141 kts | 329° |
| 2026-05-09 04:44 | 33.47639 | 130.52559 | 2371 ft | 134 kts | 329° |
| 2026-05-09 04:44 | 33.48416 | 130.52030 | 2197 ft | 122 kts | 328° |
| 2026-05-09 04:44 | 33.49139 | 130.51533 | 2026 ft | 121 kts | 329° |
| 2026-05-09 04:45 | 33.49885 | 130.51023 | 1866 ft | 126 kts | 330° |
| 2026-05-09 04:45 | 33.50646 | 130.50505 | 1708 ft | 127 kts | 330° |
| 2026-05-09 04:45 | 33.51420 | 130.49967 | 1502 ft | 130 kts | 329° |
| 2026-05-09 04:45 | 33.52184 | 130.49439 | 1313 ft | 125 kts | 330° |
| 2026-05-09 04:46 | 33.52941 | 130.48947 | 1118 ft | 124 kts | 329° |
| 2026-05-09 04:46 | 33.53678 | 130.48407 | 967 ft | 125 kts | 329° |
| 2026-05-09 04:46 | 33.54464 | 130.47887 | 808 ft | 129 kts | 329° |
| 2026-05-09 04:46 | 33.55205 | 130.47351 | 632 ft | 122 kts | 332° |
| 2026-05-09 04:47 | 33.55942 | 130.46851 | 411 ft | 121 kts | 334° |
| 2026-05-09 04:47 | 33.56691 | 130.46371 | 298 ft | 123 kts | 325° |
| 2026-05-09 04:47 | 33.57429 | 130.45852 | 146 ft | 123 kts | 330° |
| 2026-05-09 04:47 | 33.58138 | 130.45373 | 40 ft | 106 kts | 331° |
| 2026-05-09 04:48 | 33.58667 | 130.45019 | 40 ft | 65 kts | 330° |
| 2026-05-09 04:48 | 33.58937 | 130.44839 | 35 ft | 33 kts | 336° |
| 2026-05-09 04:48 | 33.59149 | 130.44772 | 31 ft | 30 kts | 356° |
| 2026-05-09 04:48 | 33.59325 | 130.44769 | 28 ft | 25 kts | 358° |
| 2026-05-09 04:49 | 33.59446 | 130.44714 | 30 ft | 16 kts | 329° |
| 2026-05-09 04:49 | 33.59488 | 130.44684 | 31 ft | 5 kts | 329° |
| 2026-05-09 04:49 | 33.59519 | 130.44667 | 31 ft | 6 kts | 340° |
| 2026-05-09 04:49 | 33.59559 | 130.44669 | 31 ft | 6 kts | 25° |
| 2026-05-09 04:50 | 33.59608 | 130.44690 | 30 ft | 9 kts | 2° |
| 2026-05-09 04:50 | 33.59675 | 130.44659 | 29 ft | 12 kts | 333° |
| 2026-05-09 04:50 | 33.59748 | 130.44611 | 30 ft | 12 kts | 330° |
| 2026-05-09 04:50 | 33.59802 | 130.44592 | 30 ft | 6 kts | 19° |
| 2026-05-09 04:51 | 33.59832 | 130.44630 | 30 ft | 6 kts | 57° |
| 2026-05-09 04:51 | 33.59838 | 130.44642 | 30 ft | 0 kts | 59° |